Time;durP1;ratioP1;P1;durP2;ratioP2;P2;SDS_P1;SDS_P2;PMS_P1;PMS_P2;Temp;Humidity;BMP_temperature;BMP_pressure;BME280_temperature;BME280_humidity;BME280_pressure;Samples;Min_cycle;Max_cycle;Signal;HPM_P1;HPM_P2
2023/11/08 00:00:17;;;;;;;11.50;7.30;;;;;;;9.57;73.64;99735.70;105872;1257;68983;-77
2023/11/08 00:02:44;;;;;;;12.40;7.20;;;;;;;9.66;73.88;99741.14;105575;1256;72542;-78
2023/11/08 00:05:12;;;;;;;12.10;7.50;;;;;;;9.71;73.87;99746.77;105658;1256;59594;-78
2023/11/08 00:07:41;;;;;;;9.90;6.60;;;;;;;9.68;74.26;99748.89;105675;1259;60050;-76
2023/11/08 00:10:09;;;;;;;9.90;7.20;;;;;;;9.63;74.30;99748.68;105888;1257;73287;-79
2023/11/08 00:12:36;;;;;;;10.80;7.80;;;;;;;9.61;74.50;99748.72;105924;1254;69122;-77
2023/11/08 00:15:07;;;;;;;8.80;7.10;;;;;;;9.69;74.19;99747.37;105761;1254;72457;-81
2023/11/08 00:17:35;;;;;;;13.10;7.30;;;;;;;9.73;74.07;99744.30;106314;1255;59712;-76
2023/11/08 00:20:09;;;;;;;10.90;6.90;;;;;;;9.68;74.29;99738.58;106639;1256;59762;-75
2023/11/08 00:22:37;;;;;;;12.10;7.10;;;;;;;9.62;74.40;99735.28;106499;1254;71867;-76
2023/11/08 00:25:05;;;;;;;11.30;7.20;;;;;;;9.58;74.64;99731.83;106212;1254;69970;-75
2023/11/08 00:27:33;;;;;;;11.00;7.00;;;;;;;9.54;74.70;99722.23;105985;1259;71442;-74
2023/11/08 00:30:03;;;;;;;12.50;7.40;;;;;;;9.58;74.56;99725.63;105636;1256;61693;-75
2023/11/08 00:32:30;;;;;;;14.60;8.20;;;;;;;9.62;74.30;99719.24;105697;1253;59864;-77
2023/11/08 00:34:58;;;;;;;12.90;7.80;;;;;;;9.58;74.59;99718.13;105632;1260;72309;-76
2023/11/08 00:37:25;;;;;;;11.80;8.20;;;;;;;9.52;74.45;99710.56;105716;1260;69370;-77
2023/11/08 00:39:53;;;;;;;14.40;9.10;;;;;;;9.45;74.60;99702.30;105597;1255;71390;-84
2023/11/08 00:42:20;;;;;;;15.80;9.90;;;;;;;9.39;74.94;99706.27;105568;1260;59733;-81
2023/11/08 00:44:48;;;;;;;13.70;8.70;;;;;;;9.34;75.17;99701.69;105621;1254;59693;-79
2023/11/08 00:47:15;;;;;;;18.00;10.30;;;;;;;9.39;75.15;99702.55;105885;1257;71798;-80
2023/11/08 00:49:43;;;;;;;18.00;12.00;;;;;;;9.43;75.58;99702.86;105984;1260;69176;-77
2023/11/08 00:52:11;;;;;;;18.20;11.80;;;;;;;9.38;75.57;99697.98;105651;1256;72650;-74
2023/11/08 00:54:38;;;;;;;20.20;13.30;;;;;;;9.32;75.72;99699.40;105555;1256;59651;-82
2023/11/08 00:57:06;;;;;;;22.80;13.60;;;;;;;9.27;75.99;99698.42;105719;1256;59664;-80
2023/11/08 00:59:35;;;;;;;16.60;12.70;;;;;;;9.21;76.38;99696.55;105537;1264;75053;-82
2023/11/08 01:02:03;;;;;;;18.30;12.80;;;;;;;9.21;76.52;99692.95;105814;1259;70180;-77
2023/11/08 01:04:30;;;;;;;21.40;11.70;;;;;;;9.30;75.96;99687.83;107741;1253;71473;-79
2023/11/08 01:07:00;;;;;;;16.80;11.10;;;;;;;9.30;76.21;99690.05;105993;1256;59645;-79
2023/11/08 01:09:27;;;;;;;16.40;10.30;;;;;;;9.27;76.39;99689.19;105712;1254;60010;-79
2023/11/08 01:11:55;;;;;;;19.30;11.10;;;;;;;9.22;76.36;99685.40;105657;1254;71881;-79
2023/11/08 01:14:23;;;;;;;14.20;12.00;;;;;;;9.18;76.27;99676.14;106601;1256;68728;-78
2023/11/08 01:16:51;;;;;;;21.80;12.40;;;;;;;9.15;76.43;99673.17;106184;1254;73231;-75
2023/11/08 01:19:19;;;;;;;18.90;11.70;;;;;;;9.20;76.73;99666.94;106096;1256;62155;-74
2023/11/08 01:21:50;;;;;;;18.50;11.60;;;;;;;9.25;76.31;99667.30;106310;1260;60404;-77
2023/11/08 01:24:17;;;;;;;20.00;10.60;;;;;;;9.22;76.59;99662.80;106960;1254;73805;-76
2023/11/08 01:26:45;;;;;;;15.30;9.80;;;;;;;9.18;76.64;99663.44;106901;1255;70958;-79
2023/11/08 01:29:13;;;;;;;16.20;11.40;;;;;;;9.15;76.72;99660.36;106005;1256;71565;-82
2023/11/08 01:31:40;;;;;;;15.60;10.30;;;;;;;9.11;76.84;99659.88;105716;1256;60438;-79
2023/11/08 01:34:11;;;;;;;16.70;9.40;;;;;;;9.08;76.80;99660.96;105490;1256;61247;-77
2023/11/08 01:36:39;;;;;;;18.90;10.20;;;;;;;9.15;76.76;99663.96;105692;1260;73866;-77
2023/11/08 01:39:07;;;;;;;14.90;9.80;;;;;;;9.18;76.61;99655.43;105728;1261;68812;-76
2023/11/08 01:41:35;;;;;;;15.00;9.80;;;;;;;9.15;76.84;99658.49;105635;1259;72739;-76
2023/11/08 01:44:03;;;;;;;18.80;10.90;;;;;;;9.10;76.93;99663.23;105950;1256;60530;-76
2023/11/08 01:46:30;;;;;;;15.20;10.00;;;;;;;9.06;77.22;99666.48;105821;1255;60430;-78
2023/11/08 01:48:59;;;;;;;19.40;9.90;;;;;;;9.02;77.29;99663.81;105821;1256;73044;-79
2023/11/08 01:51:27;;;;;;;16.80;9.20;;;;;;;9.00;77.15;99666.14;105673;1261;70405;-80
2023/11/08 01:53:55;;;;;;;13.50;8.80;;;;;;;9.08;77.02;99663.25;105913;1259;71469;-82
2023/11/08 01:56:22;;;;;;;15.40;8.90;;;;;;;9.13;77.11;99659.95;105835;1256;60571;-81
2023/11/08 01:58:51;;;;;;;14.30;9.80;;;;;;;9.10;77.21;99655.80;105595;1255;60584;-78
2023/11/08 02:01:18;;;;;;;17.10;10.30;;;;;;;9.08;77.05;99658.48;105882;1256;72867;-82
2023/11/08 02:03:46;;;;;;;18.70;10.50;;;;;;;9.06;77.25;99657.45;105600;1261;68533;-77
2023/11/08 02:06:15;;;;;;;13.50;9.90;;;;;;;9.04;77.39;99658.20;105654;1261;71473;-75
2023/11/08 02:08:44;;;;;;;16.40;10.10;;;;;;;9.02;77.06;99657.69;105630;1260;61666;-78
2023/11/08 02:11:12;;;;;;;17.40;9.50;;;;;;;9.09;77.04;99650.23;105606;1256;60422;-77
2023/11/08 02:13:41;;;;;;;16.70;10.10;;;;;;;9.16;77.05;99645.31;105674;1254;72938;-81
2023/11/08 02:16:08;;;;;;;17.30;10.30;;;;;;;9.14;77.21;99640.58;105684;1260;71033;-79
2023/11/08 02:18:36;;;;;;;15.40;11.20;;;;;;;9.12;77.17;99637.89;105636;1254;72686;-78
2023/11/08 02:21:04;;;;;;;16.30;11.00;;;;;;;9.12;77.16;99632.63;105749;1256;60580;-80
2023/11/08 02:23:31;;;;;;;17.70;11.50;;;;;;;9.08;76.96;99634.05;105510;1256;60530;-81
2023/11/08 02:25:59;;;;;;;14.50;10.00;;;;;;;9.05;77.15;99644.13;105790;1255;72598;-80
2023/11/08 02:28:27;;;;;;;20.80;11.60;;;;;;;9.11;77.23;99642.81;106831;1260;70215;-81
2023/11/08 02:30:54;;;;;;;30.00;16.70;;;;;;;9.18;77.05;99640.42;106212;1260;72762;-78
2023/11/08 02:33:23;;;;;;;22.30;13.40;;;;;;;9.17;77.03;99634.67;106914;1255;60426;-78
2023/11/08 02:35:51;;;;;;;20.20;12.40;;;;;;;9.15;77.10;99631.64;107151;1256;60279;-77
2023/11/08 02:38:19;;;;;;;18.10;11.50;;;;;;;9.11;77.21;99633.21;106629;1259;74090;-79
2023/11/08 02:40:46;;;;;;;17.30;11.10;;;;;;;9.07;77.32;99637.54;105808;1260;68710;-80
2023/11/08 02:43:14;;;;;;;18.50;10.80;;;;;;;9.04;77.43;99640.02;105702;1256;72689;-78
2023/11/08 02:45:41;;;;;;;15.50;11.50;;;;;;;9.10;77.23;99641.98;105856;1257;60548;-82
2023/11/08 02:48:09;;;;;;;18.80;10.80;;;;;;;9.18;77.03;99640.85;105718;1260;60342;-77
2023/11/08 02:50:40;;;;;;;18.30;11.30;;;;;;;9.17;77.03;99633.68;105639;1255;72712;-78
2023/11/08 02:53:07;;;;;;;22.50;12.40;;;;;;;9.17;77.10;99633.73;105771;1254;70817;-79
2023/11/08 02:55:35;;;;;;;28.70;15.80;;;;;;;9.16;77.29;99629.95;105832;1260;71677;-77
2023/11/08 02:58:02;;;;;;;23.40;13.40;;;;;;;9.13;77.19;99628.45;105781;1260;60518;-78
2023/11/08 03:00:30;;;;;;;23.00;14.10;;;;;;;9.10;77.10;99629.46;105935;1253;61314;-75
2023/11/08 03:02:58;;;;;;;23.20;13.70;;;;;;;9.08;77.06;99634.66;105877;1254;73084;-76
2023/11/08 03:05:27;;;;;;;21.80;13.50;;;;;;;9.15;76.96;99627.65;105701;1259;69927;-77
2023/11/08 03:07:55;;;;;;;22.00;13.90;;;;;;;9.23;76.92;99630.34;105868;1255;70789;-75
2023/11/08 03:10:22;;;;;;;26.60;14.90;;;;;;;9.24;76.99;99623.17;105828;1254;60495;-78
2023/11/08 03:12:50;;;;;;;21.50;13.00;;;;;;;9.27;77.19;99615.89;105724;1257;60360;-80
2023/11/08 03:15:21;;;;;;;24.60;14.30;;;;;;;9.25;76.96;99604.69;105955;1254;72848;-79
2023/11/08 03:17:53;;;;;;;21.90;13.10;;;;;;;9.22;77.28;99602.69;105675;1259;69338;-76
2023/11/08 03:20:23;;;;;;;19.60;13.00;;;;;;;9.22;77.07;99594.48;105850;1254;71512;-79
2023/11/08 03:22:51;;;;;;;21.00;11.40;;;;;;;9.23;77.31;99591.83;105876;1254;61681;-77
2023/11/08 03:25:18;;;;;;;16.40;11.40;;;;;;;9.34;76.98;99592.27;105930;1254;60557;-81
2023/11/08 03:27:46;;;;;;;15.40;10.80;;;;;;;9.43;76.92;99585.33;105820;1259;73724;-78
2023/11/08 03:30:16;;;;;;;18.30;11.80;;;;;;;9.43;76.78;99589.93;105998;1254;71141;-78
2023/11/08 03:32:44;;;;;;;22.60;11.70;;;;;;;9.37;76.60;99589.83;106238;1254;71758;-79
2023/11/08 03:35:12;;;;;;;17.60;11.10;;;;;;;9.34;77.12;99586.84;106072;1256;60419;-77
2023/11/08 03:37:42;;;;;;;18.40;12.20;;;;;;;9.33;77.02;99579.10;106544;1255;60603;-77
2023/11/08 03:40:11;;;;;;;17.70;12.00;;;;;;;9.29;76.78;99583.32;105684;1254;72654;-79
2023/11/08 03:42:44;;;;;;;19.90;12.90;;;;;;;9.21;77.25;99583.42;105694;1256;69009;-75
2023/11/08 03:45:12;;;;;;;20.00;12.40;;;;;;;9.26;76.95;99580.56;105967;1258;71521;-80
2023/11/08 03:47:40;;;;;;;18.70;10.60;;;;;;;9.33;77.13;99583.92;105745;1259;60775;-80
2023/11/08 03:50:08;;;;;;;18.10;11.70;;;;;;;9.33;77.39;99586.20;105560;1261;60349;-76
2023/11/08 03:52:36;;;;;;;17.80;11.60;;;;;;;9.33;77.14;99587.80;105525;1256;74031;-76
2023/11/08 03:55:05;;;;;;;21.50;11.90;;;;;;;9.33;77.09;99581.46;105767;1261;69215;-76
2023/11/08 03:57:32;;;;;;;18.40;11.60;;;;;;;9.32;77.20;99578.23;105844;1256;72806;-78
2023/11/08 04:00:00;;;;;;;16.90;10.80;;;;;;;9.31;76.96;99585.88;105722;1260;60395;-80
2023/11/08 04:02:28;;;;;;;22.20;12.10;;;;;;;9.40;76.69;99581.91;105818;1256;60517;-77
2023/11/08 04:04:57;;;;;;;21.20;12.60;;;;;;;9.49;76.53;99578.54;105905;1256;76541;-76
2023/11/08 04:07:24;;;;;;;18.90;12.50;;;;;;;9.49;76.48;99568.83;105880;1256;69033;-77
2023/11/08 04:09:51;;;;;;;22.10;12.20;;;;;;;9.49;76.37;99559.11;106379;1256;72698;-77
2023/11/08 04:12:19;;;;;;;19.60;12.20;;;;;;;9.49;76.53;99548.44;105917;1259;60513;-76
2023/11/08 04:14:47;;;;;;;16.20;11.20;;;;;;;9.50;76.45;99544.42;105712;1259;60627;-79
2023/11/08 04:17:17;;;;;;;23.20;14.80;;;;;;;9.51;76.16;99539.72;105861;1255;72601;-76
2023/11/08 04:19:45;;;;;;;24.50;13.80;;;;;;;9.52;76.32;99528.35;105948;1256;69084;-78
2023/11/08 04:22:16;;;;;;;18.30;12.20;;;;;;;9.60;76.01;99527.85;106214;1260;72973;-77
2023/11/08 04:24:43;;;;;;;18.60;12.60;;;;;;;9.68;75.87;99527.66;105730;1256;60400;-79
2023/11/08 04:27:11;;;;;;;19.10;12.60;;;;;;;9.65;76.07;99531.08;105564;1256;60438;-77
2023/11/08 04:29:39;;;;;;;22.10;13.10;;;;;;;9.61;76.11;99533.92;105713;1260;72590;-77
2023/11/08 04:32:06;;;;;;;17.30;12.90;;;;;;;9.57;76.14;99531.80;105705;1258;69467;-79
2023/11/08 04:34:33;;;;;;;21.70;13.20;;;;;;;9.51;76.25;99529.80;105778;1260;72729;-80
2023/11/08 04:37:09;;;;;;;21.50;12.70;;;;;;;9.46;76.51;99532.36;105667;1256;60541;-76
2023/11/08 04:39:37;;;;;;;17.50;11.40;;;;;;;9.43;76.89;99530.93;105693;1254;60538;-74
2023/11/08 04:42:05;;;;;;;20.10;12.00;;;;;;;9.49;76.91;99529.30;105915;1259;74188;-76
2023/11/08 04:44:33;;;;;;;21.90;12.00;;;;;;;9.55;76.64;99528.31;105649;1259;70108;-74
2023/11/08 04:47:01;;;;;;;21.10;12.50;;;;;;;9.54;76.73;99536.94;106095;1254;72688;-75
2023/11/08 04:49:29;;;;;;;18.90;13.70;;;;;;;9.54;76.76;99548.98;105912;1258;60519;-76
2023/11/08 04:51:56;;;;;;;23.20;15.50;;;;;;;9.53;76.90;99547.61;105474;1256;60436;-75
2023/11/08 04:54:24;;;;;;;24.30;16.20;;;;;;;9.50;76.94;99542.53;105616;1256;74115;-74
2023/11/08 04:56:53;;;;;;;28.00;16.90;;;;;;;9.43;76.91;99543.23;105734;1259;72528;-75
2023/11/08 04:59:21;;;;;;;23.00;15.10;;;;;;;9.45;76.81;99543.60;105649;1256;73720;-75
2023/11/08 05:01:48;;;;;;;27.50;16.40;;;;;;;9.46;76.77;99545.73;105733;1260;60539;-75
2023/11/08 05:04:16;;;;;;;22.70;16.30;;;;;;;9.39;76.66;99555.13;105571;1256;61916;-77
2023/11/08 05:06:44;;;;;;;23.20;16.80;;;;;;;9.33;77.18;99559.77;105604;1260;72604;-76
2023/11/08 05:09:15;;;;;;;28.30;17.90;;;;;;;9.27;77.35;99559.59;105622;1256;70366;-77
2023/11/08 05:11:42;;;;;;;27.90;16.50;;;;;;;9.23;77.48;99565.02;105679;1259;71136;-76
2023/11/08 05:14:11;;;;;;;25.70;15.50;;;;;;;9.20;77.51;99565.84;105604;1255;61740;-78
2023/11/08 05:16:39;;;;;;;25.10;16.50;;;;;;;9.26;77.47;99553.00;105607;1256;60355;-76
2023/11/08 05:19:08;;;;;;;24.60;15.70;;;;;;;9.26;77.50;99547.36;105503;1254;72617;-76
2023/11/08 05:21:35;;;;;;;25.30;16.30;;;;;;;9.23;77.62;99539.87;105668;1256;70725;-76
2023/11/08 05:24:03;;;;;;;25.60;16.20;;;;;;;9.23;77.89;99532.67;105616;1261;71509;-76
2023/11/08 05:26:31;;;;;;;19.80;16.00;;;;;;;9.21;77.79;99526.20;105960;1259;60405;-76
2023/11/08 05:28:58;;;;;;;24.50;15.40;;;;;;;9.21;77.65;99521.41;106204;1255;60428;-79
2023/11/08 05:31:27;;;;;;;22.80;14.60;;;;;;;9.30;77.70;99522.19;106830;1256;72635;-77
2023/11/08 05:33:55;;;;;;;20.20;14.30;;;;;;;9.37;77.59;99519.48;106635;1256;70327;-82
2023/11/08 05:36:23;;;;;;;22.40;14.10;;;;;;;9.37;77.62;99515.77;106408;1256;71448;-80
2023/11/08 05:38:52;;;;;;;22.40;15.00;;;;;;;9.37;78.05;99516.81;106502;1258;59233;-81
2023/11/08 05:41:19;;;;;;;19.40;13.80;;;;;;;9.40;78.18;99522.58;107960;1256;60352;-83
2023/11/08 05:43:47;;;;;;;21.00;14.40;;;;;;;9.44;78.10;99538.76;107137;1259;73690;-82
2023/11/08 05:46:16;;;;;;;21.00;14.20;;;;;;;9.51;78.05;99535.30;107317;1259;70669;-84
2023/11/08 05:48:44;;;;;;;17.20;13.70;;;;;;;9.57;77.92;99538.88;106654;1261;71459;-84
2023/11/08 05:51:12;;;;;;;18.90;14.10;;;;;;;9.51;78.06;99535.17;106274;1254;60445;-84
2023/11/08 05:53:40;;;;;;;20.40;14.40;;;;;;;9.41;78.39;99543.96;106398;1256;60601;-81
2023/11/08 05:56:07;;;;;;;23.20;14.70;;;;;;;9.33;78.87;99547.00;106234;1258;72970;-84
2023/11/08 05:58:37;;;;;;;23.10;14.40;;;;;;;9.25;78.97;99546.73;105994;1262;68909;-83
2023/11/08 06:01:05;;;;;;;25.40;15.40;;;;;;;9.23;79.44;99541.66;105843;1259;73545;-82
2023/11/08 06:03:33;;;;;;;22.70;14.90;;;;;;;9.31;79.70;99537.27;105666;1262;60370;-79
2023/11/08 06:06:01;;;;;;;23.10;14.70;;;;;;;9.31;79.76;99540.48;105983;1252;60498;-78
2023/11/08 06:08:28;;;;;;;22.70;14.50;;;;;;;9.28;80.11;99544.85;105974;1258;71871;-77
2023/11/08 06:10:57;;;;;;;25.30;16.70;;;;;;;9.23;80.28;99548.06;106243;1256;69026;-82
2023/11/08 06:13:24;;;;;;;24.60;14.30;;;;;;;9.22;80.83;99541.98;106473;1256;71507;-76
2023/11/08 06:15:52;;;;;;;25.90;15.80;;;;;;;9.25;81.23;99534.23;106421;1256;63862;-79
2023/11/08 06:18:24;;;;;;;35.30;21.60;;;;;;;9.30;81.22;99533.75;105933;1258;60915;-78
2023/11/08 06:20:55;;;;;;;28.30;17.20;;;;;;;9.21;81.28;99534.41;105816;1256;73495;-81
2023/11/08 06:23:22;;;;;;;34.00;18.20;;;;;;;9.10;82.09;99531.79;105929;1257;70643;-79
2023/11/08 06:25:50;;;;;;;29.50;16.20;;;;;;;8.99;82.97;99527.41;105977;1256;74470;-80
2023/11/08 06:28:18;;;;;;;19.90;13.40;;;;;;;8.95;83.70;99513.95;107019;1254;61928;-79
2023/11/08 06:30:45;;;;;;;23.80;13.40;;;;;;;9.02;83.58;99508.77;106325;1261;60446;-82
2023/11/08 06:33:13;;;;;;;27.10;16.60;;;;;;;9.09;83.90;99500.44;107546;1253;73887;-81
2023/11/08 06:35:43;;;;;;;22.10;14.90;;;;;;;9.13;84.77;99496.08;107357;1260;69144;-81
2023/11/08 06:38:11;;;;;;;23.60;15.90;;;;;;;9.16;85.01;99499.16;106730;1256;71455;-79
2023/11/08 06:40:40;;;;;;;25.50;14.40;;;;;;;9.17;85.28;99497.77;106137;1258;61698;-80
2023/11/08 06:43:07;;;;;;;21.30;13.20;;;;;;;9.29;85.33;99492.29;106458;1254;61070;-80
2023/11/08 06:45:35;;;;;;;22.10;14.60;;;;;;;9.39;85.10;99480.09;106403;1256;72116;-80
2023/11/08 06:48:03;;;;;;;23.00;15.70;;;;;;;9.45;86.22;99477.84;106313;1261;68927;-77
2023/11/08 06:50:31;;;;;;;20.80;14.10;;;;;;;9.49;86.41;99475.77;106144;1259;72928;-78
2023/11/08 06:52:59;;;;;;;24.70;13.50;;;;;;;9.54;86.32;99469.77;106279;1259;62733;-79
2023/11/08 06:55:26;;;;;;;17.20;12.30;;;;;;;9.64;86.00;99462.79;105980;1256;60439;-76
2023/11/08 06:58:07;;;;;;;18.00;13.10;;;;;;;9.72;85.96;99452.41;106131;1259;75951;-78
2023/11/08 07:00:35;;;;;;;26.50;14.10;;;;;;;9.70;85.57;99443.62;106015;1259;68627;-76
2023/11/08 07:03:04;;;;;;;19.80;13.20;;;;;;;9.63;85.10;99436.94;106114;1259;71409;-77
2023/11/08 07:05:32;;;;;;;21.40;15.10;;;;;;;9.67;85.14;99432.12;105853;1258;60911;-79
2023/11/08 07:08:07;;;;;;;20.70;15.30;;;;;;;9.74;85.38;99425.70;105765;1259;60473;-78
2023/11/08 07:10:35;;;;;;;25.20;17.20;;;;;;;9.71;85.90;99425.84;105797;1256;74269;-77
2023/11/08 07:13:03;;;;;;;24.10;16.30;;;;;;;9.65;85.80;99425.07;106330;1260;68716;-76
2023/11/08 07:15:30;;;;;;;24.80;18.10;;;;;;;9.71;86.17;99423.19;105850;1254;72510;-75
2023/11/08 07:17:58;;;;;;;23.50;17.10;;;;;;;9.76;85.98;99421.38;105807;1256;60473;-77
2023/11/08 07:20:26;;;;;;;22.90;15.40;;;;;;;9.73;86.56;99428.92;105779;1254;60535;-76
2023/11/08 07:22:53;;;;;;;20.50;15.80;;;;;;;9.73;87.43;99431.98;105741;1258;73680;-80
2023/11/08 07:25:21;;;;;;;25.70;17.10;;;;;;;9.79;87.82;99435.17;106994;1254;68167;-77
2023/11/08 07:27:50;;;;;;;22.80;17.00;;;;;;;9.78;88.20;99440.41;109045;1254;71637;-77
2023/11/08 07:30:18;;;;;;;21.70;14.20;;;;;;;9.74;87.76;99443.92;108729;1256;63633;-76
2023/11/08 07:32:46;;;;;;;21.90;15.60;;;;;;;9.74;87.47;99441.91;108681;1254;60972;-76
2023/11/08 07:35:13;;;;;;;22.20;14.90;;;;;;;9.64;88.27;99440.55;108669;1254;74911;-77
2023/11/08 07:37:41;;;;;;;23.60;14.50;;;;;;;9.58;88.54;99438.90;108214;1254;68845;-74
2023/11/08 07:40:13;;;;;;;19.40;14.00;;;;;;;9.58;89.53;99433.27;108154;1257;73992;-77
2023/11/08 07:42:41;;;;;;;23.40;16.30;;;;;;;9.52;90.54;99431.48;108038;1256;60546;-79
2023/11/08 07:45:09;;;;;;;21.50;15.10;;;;;;;9.43;91.11;99428.23;107633;1254;61026;-78
2023/11/08 07:47:37;;;;;;;20.40;13.20;;;;;;;9.42;91.60;99418.91;106997;1259;73028;-74
2023/11/08 07:50:06;;;;;;;22.40;14.60;;;;;;;9.43;92.47;99404.54;106396;1256;68542;-76
2023/11/08 07:52:37;;;;;;;18.60;14.10;;;;;;;9.36;92.88;99392.75;106637;1256;74721;-77
2023/11/08 07:55:11;;;;;;;20.80;13.80;;;;;;;9.33;92.96;99383.34;106430;1257;60941;-76
2023/11/08 07:57:41;;;;;;;20.30;14.20;;;;;;;9.37;93.81;99381.31;106573;1253;62012;-75
2023/11/08 08:00:14;;;;;;;26.50;14.80;;;;;;;9.45;94.92;99379.57;106622;1257;72458;-76
2023/11/08 08:02:45;;;;;;;21.80;13.10;;;;;;;9.45;94.72;99380.23;106208;1259;69116;-76
2023/11/08 08:05:13;;;;;;;22.90;14.70;;;;;;;9.49;94.85;99384.55;106216;1261;73790;-76
2023/11/08 08:07:41;;;;;;;21.20;14.50;;;;;;;9.53;95.08;99379.05;106387;1256;60691;-78
2023/11/08 08:10:09;;;;;;;23.20;14.90;;;;;;;9.48;95.95;99375.29;106309;1258;60516;-79
2023/11/08 08:12:37;;;;;;;25.30;15.60;;;;;;;9.47;96.50;99369.29;106912;1254;72586;-78
2023/11/08 08:15:14;;;;;;;22.00;14.00;;;;;;;9.49;95.99;99367.02;106538;1256;70554;-77
2023/11/08 08:17:45;;;;;;;20.90;15.90;;;;;;;9.55;96.22;99367.48;106797;1255;71710;-78
2023/11/08 08:20:14;;;;;;;20.40;14.40;;;;;;;9.61;96.67;99367.48;107045;1254;62298;-78
2023/11/08 08:22:42;;;;;;;18.60;13.30;;;;;;;9.73;96.70;99367.80;107320;1256;60584;-79
2023/11/08 08:25:11;;;;;;;20.30;14.70;;;;;;;9.80;96.56;99359.48;107431;1254;74278;-76
2023/11/08 08:27:40;;;;;;;20.70;13.50;;;;;;;9.84;96.66;99356.30;107816;1256;69094;-79
2023/11/08 08:30:14;;;;;;;18.70;12.90;;;;;;;9.87;96.15;99355.98;108148;1254;74646;-76
2023/11/08 08:32:47;;;;;;;17.80;12.10;;;;;;;9.91;95.70;99354.46;107394;1256;61135;-77
2023/11/08 08:35:15;;;;;;;17.20;12.40;;;;;;;9.94;95.33;99356.54;106906;1258;59360;-76
2023/11/08 08:37:42;;;;;;;19.00;12.30;;;;;;;9.91;93.84;99355.73;108037;1254;71939;-77
2023/11/08 08:40:10;;;;;;;19.60;13.80;;;;;;;9.83;92.32;99357.39;108331;1254;69631;-78
2023/11/08 08:42:42;;;;;;;22.00;12.70;;;;;;;9.80;92.88;99349.23;108759;1255;73544;-78
2023/11/08 08:45:11;;;;;;;18.60;12.30;;;;;;;9.79;92.74;99346.52;108373;1258;60297;-78
2023/11/08 08:47:38;;;;;;;17.20;12.50;;;;;;;9.80;92.51;99352.98;107909;1256;60072;-78
2023/11/08 08:50:12;;;;;;;18.30;12.60;;;;;;;9.83;93.27;99349.96;107413;1254;73020;-78
2023/11/08 08:52:41;;;;;;;20.20;13.30;;;;;;;9.82;93.94;99343.92;107573;1258;71347;-77
2023/11/08 08:55:09;;;;;;;20.60;13.30;;;;;;;9.80;93.18;99337.04;107439;1254;74580;-78
2023/11/08 08:57:37;;;;;;;16.90;12.80;;;;;;;9.75;92.87;99331.43;109171;1253;58959;-74
2023/11/08 09:00:07;;;;;;;19.30;13.10;;;;;;;9.73;93.34;99330.35;109145;1254;59181;-76
2023/11/08 09:02:35;;;;;;;18.00;12.80;;;;;;;9.72;93.67;99322.47;109196;1252;75087;-76
2023/11/08 09:05:12;;;;;;;21.70;14.10;;;;;;;9.74;94.84;99312.83;109020;1255;70352;-77
2023/11/08 09:07:40;;;;;;;17.70;11.90;;;;;;;9.83;95.11;99308.48;109063;1254;73349;-76
2023/11/08 09:10:09;;;;;;;21.20;14.10;;;;;;;9.90;96.14;99291.55;109164;1254;60821;-77
2023/11/08 09:12:36;;;;;;;20.70;13.80;;;;;;;9.97;96.88;99285.52;109273;1254;59975;-76
2023/11/08 09:15:05;;;;;;;16.40;12.70;;;;;;;10.00;97.02;99283.30;109082;1254;74703;-77
2023/11/08 09:17:32;;;;;;;18.70;13.40;;;;;;;10.06;97.74;99276.73;109154;1254;69358;-79
2023/11/08 09:20:07;;;;;;;22.90;14.00;;;;;;;10.09;98.13;99271.02;109110;1257;70734;-79
2023/11/08 09:22:35;;;;;;;16.70;13.10;;;;;;;10.17;98.16;99268.91;109159;1254;234796;-77
2023/11/08 09:27:25;;;;;;;23.90;16.10;;;;;;;10.23;97.71;99266.86;106576;1283;599384;-77
2023/11/08 09:29:52;;;;;;;20.80;16.10;;;;;;;10.25;97.90;99267.23;109252;1253;61125;-76
2023/11/08 09:32:20;;;;;;;22.30;15.70;;;;;;;10.30;98.50;99268.21;109174;1253;58799;-78
2023/11/08 09:34:50;;;;;;;25.90;19.10;;;;;;;10.35;98.62;99265.86;108918;1253;72178;-77
2023/11/08 09:37:18;;;;;;;25.50;19.30;;;;;;;10.37;98.51;99260.15;109021;1253;71208;-79
2023/11/08 09:39:49;;;;;;;26.80;19.00;;;;;;;10.39;99.32;99260.26;108927;1256;73852;-75
2023/11/08 09:42:21;;;;;;;29.10;20.40;;;;;;;10.43;99.38;99255.26;108894;1253;61497;-75
2023/11/08 09:44:48;;;;;;;27.00;20.90;;;;;;;10.47;99.55;99245.45;109008;1253;58718;-76
2023/11/08 09:47:16;;;;;;;28.60;20.60;;;;;;;10.49;99.30;99242.35;108979;1251;70531;-76
2023/11/08 09:49:53;;;;;;;27.50;22.70;;;;;;;10.49;99.16;99234.91;109125;1251;71878;-76
2023/11/08 09:52:25;;;;;;;27.10;19.30;;;;;;;10.46;99.05;99233.11;108761;1251;71161;-74
2023/11/08 09:54:52;;;;;;;25.50;19.60;;;;;;;10.47;99.21;99232.14;108844;1251;60943;-76
2023/11/08 09:57:20;;;;;;;26.20;18.80;;;;;;;10.49;99.73;99232.86;108759;1251;59550;-76
2023/11/08 09:59:48;;;;;;;29.80;20.60;;;;;;;10.51;99.79;99231.15;108919;1251;74299;-76
2023/11/08 10:02:15;;;;;;;25.20;19.60;;;;;;;10.49;99.40;99232.23;108963;1251;72570;-76
2023/11/08 10:04:43;;;;;;;28.00;21.30;;;;;;;10.46;99.33;99229.30;109080;1255;71209;-80
2023/11/08 10:07:15;;;;;;;36.40;20.20;;;;;;;10.43;99.77;99227.77;109030;1253;61016;-76
2023/11/08 10:09:42;;;;;;;30.00;21.70;;;;;;;10.43;99.82;99222.85;109025;1252;60967;-76
2023/11/08 10:12:11;;;;;;;29.70;22.40;;;;;;;10.44;99.62;99217.64;108833;1251;71916;-75
2023/11/08 10:14:44;;;;;;;25.10;19.60;;;;;;;10.45;99.41;99211.32;108828;1252;71357;-77
2023/11/08 10:17:12;;;;;;;26.00;19.10;;;;;;;10.46;99.20;99206.77;108921;1253;74967;-78
2023/11/08 10:19:59;;;;;;;22.50;17.00;;;;;;;10.47;99.53;99205.39;108600;1251;61860;-79
2023/11/08 10:22:28;;;;;;;26.70;18.30;;;;;;;10.46;98.68;99202.88;109102;1256;61089;-78
2023/11/08 10:25:00;;;;;;;25.20;18.20;;;;;;;10.47;98.72;99204.23;108876;1253;71846;-78
2023/11/08 10:27:29;;;;;;;23.30;17.70;;;;;;;10.46;98.66;99202.77;109075;1252;69810;-77
2023/11/08 10:30:20;;;;;;;20.50;15.20;;;;;;;10.47;98.26;99199.02;109053;1253;72572;-78
2023/11/08 10:32:48;;;;;;;18.20;16.00;;;;;;;10.45;98.61;99202.29;109118;1253;61318;-77
2023/11/08 10:35:23;;;;;;;23.10;15.60;;;;;;;10.48;98.63;99200.83;108948;1251;60858;-77
2023/11/08 10:37:50;;;;;;;23.20;15.90;;;;;;;10.52;98.46;99193.77;108992;1253;72022;-79
2023/11/08 10:40:21;;;;;;;19.40;16.40;;;;;;;10.53;97.83;99188.89;107790;1253;70482;-77
2023/11/08 10:42:53;;;;;;;21.20;16.10;;;;;;;10.54;98.05;99192.38;106487;1254;70850;-76
2023/11/08 10:45:21;;;;;;;20.80;15.90;;;;;;;10.55;98.49;99188.22;107373;1253;59431;-79
2023/11/08 10:47:49;;;;;;;22.10;16.60;;;;;;;10.55;98.40;99183.20;107676;1251;59497;-78
2023/11/08 10:50:18;;;;;;;22.50;18.60;;;;;;;10.55;97.90;99180.99;106864;1256;74091;-79
2023/11/08 10:52:48;;;;;;;24.60;18.80;;;;;;;10.53;98.29;99176.69;106291;1259;72487;-80
2023/11/08 10:55:16;;;;;;;25.90;21.80;;;;;;;10.51;97.74;99169.34;106414;1253;74987;-76
2023/11/08 10:58:03;;;;;;;28.50;20.10;;;;;;;10.50;97.43;99160.98;106266;1253;61105;-80
2023/11/08 11:00:31;;;;;;;25.20;20.40;;;;;;;10.50;97.55;99150.89;106121;1253;59667;-78
2023/11/08 11:03:00;;;;;;;25.40;21.50;;;;;;;10.47;97.18;99138.88;105777;1252;75246;-79
2023/11/08 11:05:30;;;;;;;29.90;23.40;;;;;;;10.47;97.46;99137.04;105973;1253;72115;-78
2023/11/08 11:07:59;;;;;;;30.40;23.80;;;;;;;10.49;97.95;99133.10;105848;1253;72547;-78
2023/11/08 11:10:28;;;;;;;25.70;21.90;;;;;;;10.49;97.69;99126.36;106006;1262;59638;-79
2023/11/08 11:13:09;;;;;;;28.10;24.10;;;;;;;10.52;98.27;99113.33;105943;1253;59821;-76
2023/11/08 11:16:03;;;;;;;33.20;26.30;;;;;;;10.52;99.03;99101.59;105908;1257;75241;-80
2023/11/08 11:18:40;;;;;;;34.80;28.50;;;;;;;10.54;98.93;99092.67;106002;1253;68819;-78
2023/11/08 11:21:17;;;;;;;35.10;27.30;;;;;;;10.56;98.93;99086.65;105830;1253;73247;-76
2023/11/08 11:23:44;;;;;;;33.80;27.80;;;;;;;10.56;98.87;99106.10;105882;1253;62254;-78
2023/11/08 11:26:12;;;;;;;34.90;29.00;;;;;;;10.53;97.96;99111.70;105862;1252;59528;-79